Time;durP1;ratioP1;P1;durP2;ratioP2;P2;SDS_P1;SDS_P2;PMS_P1;PMS_P2;Temp;Humidity;BMP_temperature;BMP_pressure;BME280_temperature;BME280_humidity;BME280_pressure;Samples;Min_cycle;Max_cycle;Signal;HPM_P1;HPM_P2
2022/12/31 00:00:39;;;;;;;7.60;1.73;;;;;;;19.01;57.59;100069.78;5089337;28;20197;-65
2022/12/31 00:03:07;;;;;;;8.40;2.00;;;;;;;19.02;57.60;100077.16;5104517;28;20228;-65
2022/12/31 00:05:33;;;;;;;8.50;1.70;;;;;;;19.00;57.61;100082.44;5077580;28;20198;-65
2022/12/31 00:07:59;;;;;;;9.37;2.10;;;;;;;19.04;57.45;100091.91;5060658;28;20465;-65
2022/12/31 00:10:24;;;;;;;4.27;1.90;;;;;;;19.04;57.63;100091.91;5071282;28;20202;-65
2022/12/31 00:12:50;;;;;;;9.17;1.63;;;;;;;19.03;57.49;100089.44;5053607;28;20179;-65
2022/12/31 00:15:15;;;;;;;5.60;1.87;;;;;;;19.02;57.34;100088.59;5071324;28;20641;-65
2022/12/31 00:17:41;;;;;;;7.40;1.83;;;;;;;19.02;57.66;100088.59;5055597;28;20745;-65
2022/12/31 00:20:07;;;;;;;10.70;2.87;;;;;;;19.04;57.45;100097.63;5105942;28;20260;-65
2022/12/31 00:22:32;;;;;;;9.30;2.10;;;;;;;19.04;57.37;100108.25;5100040;28;20181;-65
2022/12/31 00:24:58;;;;;;;5.53;1.73;;;;;;;19.02;57.49;100102.91;5112791;28;20957;-65
2022/12/31 00:27:23;;;;;;;8.07;1.90;;;;;;;19.01;57.38;100106.97;5107093;28;20162;-65
2022/12/31 00:29:49;;;;;;;6.10;2.37;;;;;;;19.01;57.42;100104.13;5073194;28;20186;-65
2022/12/31 00:32:14;;;;;;;5.90;1.60;;;;;;;19.03;57.29;100100.88;5070986;28;20572;-65
2022/12/31 00:34:40;;;;;;;4.70;1.73;;;;;;;19.00;57.34;100098.78;5071021;28;20602;-65
2022/12/31 00:37:05;;;;;;;4.90;1.80;;;;;;;19.01;57.67;100104.13;5073661;28;20216;-65
2022/12/31 00:39:30;;;;;;;4.43;1.50;;;;;;;19.00;57.47;100102.47;5073012;28;20195;-65
2022/12/31 00:41:56;;;;;;;5.87;1.60;;;;;;;19.00;57.42;100111.06;5071577;28;20223;-65
2022/12/31 00:44:21;;;;;;;6.30;1.70;;;;;;;19.02;57.33;100111.47;5082897;28;20289;-65
2022/12/31 00:46:47;;;;;;;6.30;2.50;;;;;;;19.03;57.50;100115.19;5070777;28;20170;-65
2022/12/31 00:49:12;;;;;;;3.83;1.77;;;;;;;18.99;57.41;100114.31;5070668;28;20514;-65
2022/12/31 00:51:38;;;;;;;5.70;1.30;;;;;;;18.99;57.39;100111.44;5073504;28;20213;-65
2022/12/31 00:54:03;;;;;;;7.70;1.63;;;;;;;18.99;57.30;100129.44;5070686;28;20618;-65
2022/12/31 00:56:29;;;;;;;5.57;1.80;;;;;;;19.03;57.20;100124.59;5073394;28;20190;-65
2022/12/31 00:58:55;;;;;;;4.73;1.97;;;;;;;19.01;57.31;100120.47;5073280;28;20194;-65
2022/12/31 01:01:22;;;;;;;4.80;1.50;;;;;;;18.99;57.33;100129.44;5070379;28;20159;-65
2022/12/31 01:03:49;;;;;;;6.57;1.90;;;;;;;18.97;57.50;100136.78;5063172;28;20239;-65
2022/12/31 01:06:15;;;;;;;5.77;1.83;;;;;;;18.96;57.42;100135.94;5090845;28;20965;-65
2022/12/31 01:08:40;;;;;;;5.93;2.00;;;;;;;19.01;57.34;100143.38;5090745;28;20408;-65
2022/12/31 01:11:17;;;;;;;11.20;2.30;;;;;;;18.98;57.35;100135.53;5077080;28;20187;-65
2022/12/31 01:13:46;;;;;;;4.90;1.57;;;;;;;18.98;57.33;100150.69;5072799;28;20198;-65
2022/12/31 01:16:12;;;;;;;5.90;1.47;;;;;;;18.98;57.28;100142.09;5070203;28;20463;-65
2022/12/31 01:18:38;;;;;;;5.03;2.10;;;;;;;18.98;57.32;100155.56;5079064;28;20444;-65
2022/12/31 01:21:06;;;;;;;7.37;1.87;;;;;;;18.98;57.50;100161.28;5072175;28;20416;-65
2022/12/31 01:23:32;;;;;;;2.80;1.30;;;;;;;18.97;57.34;100154.75;5090487;28;20165;-65
2022/12/31 01:26:01;;;;;;;6.30;1.47;;;;;;;18.96;57.51;100146.56;5089726;28;20416;-65
2022/12/31 01:28:27;;;;;;;5.80;1.40;;;;;;;18.95;57.72;100162.91;5086519;28;20549;-65
2022/12/31 01:30:52;;;;;;;3.60;1.23;;;;;;;18.97;57.45;100165.38;5086443;28;20511;-65
2022/12/31 01:33:18;;;;;;;5.57;1.97;;;;;;;18.98;57.72;100162.13;5072286;28;20189;-65
2022/12/31 01:35:43;;;;;;;4.30;1.63;;;;;;;18.98;57.24;100156.41;5085299;28;20689;-65
2022/12/31 01:38:09;;;;;;;4.00;1.50;;;;;;;18.98;57.36;100162.13;5089944;28;20875;-65
2022/12/31 01:40:37;;;;;;;4.47;1.47;;;;;;;18.96;57.28;100160.88;5089805;28;20624;-65
2022/12/31 01:43:14;;;;;;;5.30;1.87;;;;;;;18.97;57.43;100159.66;5089408;28;20175;-65
2022/12/31 01:45:40;;;;;;;6.57;1.63;;;;;;;18.97;57.35;100160.47;5068669;28;20556;-65
2022/12/31 01:48:06;;;;;;;6.27;1.63;;;;;;;18.96;57.27;100170.25;5056756;28;21194;-65
2022/12/31 01:50:32;;;;;;;3.87;1.20;;;;;;;18.98;57.19;100155.56;5035895;28;20221;-65
2022/12/31 01:53:00;;;;;;;4.53;1.80;;;;;;;18.98;57.15;100167.84;5058275;28;20472;-65
2022/12/31 01:55:44;;;;;;;5.53;1.77;;;;;;;18.97;57.27;100159.66;5055791;28;20167;-65
2022/12/31 01:58:22;;;;;;;4.20;1.50;;;;;;;18.95;57.53;100171.47;5058731;28;20473;-65
2022/12/31 02:00:48;;;;;;;3.30;1.40;;;;;;;18.95;57.29;100180.06;5058164;28;20425;-65
2022/12/31 02:03:13;;;;;;;5.23;1.50;;;;;;;18.97;57.32;100171.91;5081618;28;20519;-65
2022/12/31 02:06:00;;;;;;;6.47;1.67;;;;;;;18.96;57.27;100172.31;5075942;28;20215;-65
2022/12/31 02:08:26;;;;;;;5.03;1.83;;;;;;;18.95;57.49;100162.91;5104149;28;20193;-65
2022/12/31 02:10:51;;;;;;;8.83;2.20;;;;;;;18.92;57.38;100157.94;5087025;28;20432;-65
2022/12/31 02:13:16;;;;;;;8.43;2.17;;;;;;;18.93;57.49;100161.63;5087844;28;20182;-65
2022/12/31 02:15:46;;;;;;;3.13;1.10;;;;;;;18.93;57.38;100164.50;5090578;28;20222;-65
2022/12/31 02:18:14;;;;;;;3.60;1.30;;;;;;;18.92;57.00;100168.56;5096270;28;20181;-65
2022/12/31 02:21:01;;;;;;;3.87;1.50;;;;;;;18.91;57.37;100167.72;5083388;28;20419;-65
2022/12/31 02:23:45;;;;;;;4.40;1.50;;;;;;;18.94;57.70;100169.00;5092302;28;20484;-65
2022/12/31 02:26:41;;;;;;;4.23;1.60;;;;;;;18.92;57.37;100168.56;5079073;28;20520;-65
2022/12/31 02:29:15;;;;;;;6.50;1.67;;;;;;;18.95;57.17;100171.47;5057640;28;20397;-65
2022/12/31 02:31:53;;;;;;;4.33;1.20;;;;;;;18.93;57.33;100175.94;5057729;28;20479;-65
2022/12/31 02:35:01;;;;;;;3.00;1.07;;;;;;;18.95;57.14;100164.91;5083338;28;20433;-65
2022/12/31 02:37:27;;;;;;;5.00;1.43;;;;;;;18.94;57.36;100169.84;5069405;28;20432;-65
2022/12/31 02:39:53;;;;;;;3.70;1.40;;;;;;;18.93;57.28;100165.34;5071686;28;20938;-65
2022/12/31 02:42:18;;;;;;;8.63;1.57;;;;;;;18.93;57.30;100165.34;5074721;28;20579;-65
2022/12/31 02:44:44;;;;;;;4.30;1.40;;;;;;;18.97;57.08;100171.09;5092776;28;20211;-65
2022/12/31 02:47:25;;;;;;;7.03;1.30;;;;;;;18.94;57.37;100172.69;5092773;28;20240;-65
2022/12/31 02:49:50;;;;;;;3.67;1.30;;;;;;;18.95;57.10;100177.19;5064478;28;20193;-65
2022/12/31 02:52:20;;;;;;;4.53;1.40;;;;;;;18.90;57.21;100177.53;5072939;28;20414;-65
2022/12/31 02:54:49;;;;;;;4.13;1.30;;;;;;;18.91;56.80;100182.03;5057620;28;20215;-65
2022/12/31 02:57:20;;;;;;;3.90;1.10;;;;;;;18.93;57.20;100176.78;5054288;28;20845;-65
2022/12/31 03:02:39;;;;;;;8.07;1.40;;;;;;;18.90;57.38;100153.81;5075000;28;20443;-65
2022/12/31 03:05:04;;;;;;;4.43;1.17;;;;;;;18.90;57.35;100151.78;5074026;28;20513;-65
2022/12/31 03:07:31;;;;;;;3.90;1.37;;;;;;;18.89;57.16;100152.16;5090710;28;20974;-65
2022/12/31 03:09:57;;;;;;;3.53;1.60;;;;;;;18.91;57.39;100159.16;5073398;28;20600;-65
2022/12/31 03:15:18;;;;;;;4.93;1.17;;;;;;;18.89;57.07;100170.16;5060002;28;20214;-65
2022/12/31 03:17:51;;;;;;;4.03;1.50;;;;;;;18.91;57.32;100176.31;5076482;28;20446;-65
2022/12/31 03:23:03;;;;;;;3.13;1.40;;;;;;;18.91;57.07;100173.47;5092403;28;20407;-65
2022/12/31 03:25:34;;;;;;;2.70;1.30;;;;;;;18.90;57.22;100176.69;5074526;28;20448;-65
2022/12/31 03:28:01;;;;;;;3.10;1.03;;;;;;;18.91;57.15;100181.22;5078967;28;20516;-65
2022/12/31 03:30:27;;;;;;;5.10;1.40;;;;;;;18.89;57.17;100175.06;5079315;28;20413;-65
2022/12/31 03:32:52;;;;;;;4.57;1.50;;;;;;;18.88;57.06;100174.25;5087919;28;20475;-65
2022/12/31 03:35:19;;;;;;;3.97;1.30;;;;;;;18.90;57.32;100180.41;5079109;28;20261;-65
2022/12/31 03:37:45;;;;;;;4.00;0.97;;;;;;;18.92;57.08;100182.88;5092360;28;20546;-65
2022/12/31 03:40:11;;;;;;;4.30;1.70;;;;;;;18.92;57.13;100180.81;5091764;28;20461;-65
2022/12/31 03:42:37;;;;;;;3.83;1.17;;;;;;;18.92;57.38;100171.44;5074319;28;20201;-65
2022/12/31 03:45:03;;;;;;;4.63;1.00;;;;;;;18.90;57.11;100170.97;5061456;28;20461;-65
2022/12/31 03:47:28;;;;;;;2.43;0.90;;;;;;;18.92;57.57;100171.44;5072107;28;20193;-65
2022/12/31 03:49:53;;;;;;;3.67;1.27;;;;;;;18.93;57.05;100168.19;5076022;28;20408;-65
2022/12/31 03:52:19;;;;;;;2.63;0.90;;;;;;;18.91;57.11;100172.66;5092069;28;20174;-65
2022/12/31 03:54:44;;;;;;;4.70;1.70;;;;;;;18.90;57.19;100176.69;5075419;28;20232;-65
2022/12/31 03:57:10;;;;;;;3.23;1.30;;;;;;;18.87;57.14;100184.00;5071566;28;20526;-65
2022/12/31 03:59:35;;;;;;;3.43;1.80;;;;;;;18.91;57.21;100184.91;5056274;28;20646;-65
2022/12/31 04:02:01;;;;;;;3.43;1.20;;;;;;;18.93;57.09;100188.22;5093624;28;20167;-65
2022/12/31 04:04:26;;;;;;;6.20;1.27;;;;;;;18.92;56.98;100183.69;5100403;28;20697;-65
2022/12/31 04:06:51;;;;;;;2.70;1.10;;;;;;;18.91;57.08;100189.81;5081830;28;20185;-65
2022/12/31 04:09:17;;;;;;;2.63;1.13;;;;;;;18.93;56.83;100193.94;5091763;28;20163;-65
2022/12/31 04:11:42;;;;;;;4.80;1.50;;;;;;;18.91;57.33;100207.78;5080267;28;20527;-65
2022/12/31 04:14:08;;;;;;;3.10;1.33;;;;;;;18.89;57.10;100197.94;5054737;28;20179;-65
2022/12/31 04:16:33;;;;;;;2.90;1.20;;;;;;;18.91;57.06;100201.25;5079664;28;20287;-65
2022/12/31 04:18:59;;;;;;;4.70;1.10;;;;;;;18.90;57.10;100209.00;5099200;28;20546;-65
2022/12/31 04:21:24;;;;;;;2.87;1.03;;;;;;;18.87;57.08;100198.31;5071365;28;20533;-65
2022/12/31 04:23:50;;;;;;;3.80;1.30;;;;;;;18.88;57.04;100205.72;5071478;28;20202;-65
2022/12/31 04:26:15;;;;;;;3.20;1.13;;;;;;;18.90;56.91;100206.13;5073409;28;20191;-65
2022/12/31 04:28:41;;;;;;;3.20;1.30;;;;;;;18.90;57.12;100200.41;5071135;28;20175;-65
2022/12/31 04:31:06;;;;;;;2.60;1.30;;;;;;;18.91;57.11;100204.91;5084793;28;20219;-65
2022/12/31 04:33:31;;;;;;;6.27;1.10;;;;;;;18.89;57.04;100206.53;5095758;28;20185;-65
2022/12/31 04:36:03;;;;;;;4.13;1.10;;;;;;;18.89;57.32;100204.50;5091406;28;20189;-65
2022/12/31 04:38:28;;;;;;;4.50;1.20;;;;;;;18.91;57.04;100204.13;5089263;28;20189;-65
2022/12/31 04:43:38;;;;;;;5.13;1.40;;;;;;;18.90;56.90;100209.00;5070768;28;20174;-65
2022/12/31 04:46:04;;;;;;;2.07;1.00;;;;;;;18.87;57.03;100206.91;5071193;28;20413;-65
2022/12/31 04:48:29;;;;;;;2.37;1.00;;;;;;;18.88;57.82;100202.84;5073435;28;20191;-65
2022/12/31 04:50:55;;;;;;;3.27;1.30;;;;;;;18.91;57.01;100215.56;5070954;28;20225;-65
2022/12/31 04:53:20;;;;;;;2.60;0.83;;;;;;;18.90;57.02;100229.03;5070845;28;20178;-65
2022/12/31 04:55:45;;;;;;;2.57;1.20;;;;;;;18.88;56.95;100222.88;5070791;28;20179;-65
2022/12/31 04:58:11;;;;;;;4.07;1.60;;;;;;;18.89;56.87;100223.69;5072927;28;21040;-65
2022/12/31 05:00:36;;;;;;;3.30;1.23;;;;;;;18.88;57.13;100222.03;5070787;28;20182;-65
2022/12/31 05:03:02;;;;;;;2.93;1.00;;;;;;;18.89;57.00;100226.53;5073016;28;20191;-65
2022/12/31 05:05:27;;;;;;;2.80;0.93;;;;;;;18.88;57.10;100222.88;5071103;28;20234;-65
2022/12/31 05:07:52;;;;;;;2.17;0.90;;;;;;;18.91;57.07;100219.22;5087820;28;20183;-65
2022/12/31 05:10:18;;;;;;;2.93;0.90;;;;;;;18.91;56.72;100222.09;5088474;28;20186;-65
2022/12/31 05:12:43;;;;;;;3.50;1.20;;;;;;;18.90;57.09;100217.59;5090602;28;20170;-65
2022/12/31 05:15:09;;;;;;;3.20;1.00;;;;;;;18.89;56.76;100218.81;5091101;28;20208;-65
2022/12/31 05:17:34;;;;;;;3.37;1.33;;;;;;;18.90;57.08;100203.28;5088692;28;20166;-65
2022/12/31 05:20:00;;;;;;;3.30;1.10;;;;;;;18.91;57.09;100216.38;5075334;28;20187;-65
2022/12/31 05:22:28;;;;;;;5.33;1.50;;;;;;;18.91;56.80;100230.66;5070193;28;20213;-65
2022/12/31 05:24:53;;;;;;;4.10;1.40;;;;;;;18.90;57.03;100231.03;5069917;28;20284;-65
2022/12/31 05:27:19;;;;;;;3.23;1.10;;;;;;;18.91;56.80;100233.53;5073613;28;20430;-65
2022/12/31 05:29:44;;;;;;;2.50;1.00;;;;;;;18.90;56.85;100240.47;5076030;28;20203;-65
2022/12/31 05:32:10;;;;;;;3.43;1.20;;;;;;;18.88;56.98;100237.19;5074106;28;20278;-65
2022/12/31 05:34:35;;;;;;;2.90;1.10;;;;;;;18.88;56.78;100242.91;5075442;28;20663;-65
2022/12/31 05:37:00;;;;;;;3.40;1.03;;;;;;;18.91;56.81;100244.97;5089371;28;20633;-65
2022/12/31 05:39:26;;;;;;;4.87;1.40;;;;;;;18.91;56.87;100256.41;5093977;28;20159;-65
2022/12/31 05:41:51;;;;;;;6.80;1.20;;;;;;;18.94;56.74;100251.97;5093580;28;20229;-65
2022/12/31 05:44:17;;;;;;;5.00;1.30;;;;;;;18.91;56.61;100259.28;5082815;28;20227;-65
2022/12/31 05:46:42;;;;;;;3.70;1.57;;;;;;;18.93;56.74;100254.00;5093278;28;20182;-65
2022/12/31 05:49:08;;;;;;;2.57;1.00;;;;;;;18.94;56.64;100252.78;5094060;28;20189;-65
2022/12/31 05:51:33;;;;;;;6.17;1.40;;;;;;;18.94;56.56;100249.09;5094687;28;20599;-65
2022/12/31 05:53:58;;;;;;;3.00;1.20;;;;;;;18.92;56.91;100254.41;5077969;28;20183;-65
2022/12/31 05:56:24;;;;;;;2.97;1.20;;;;;;;18.91;56.73;100253.56;5099484;28;20242;-65
2022/12/31 05:58:49;;;;;;;3.50;1.03;;;;;;;18.91;56.70;100241.31;5087925;28;20916;-65
2022/12/31 06:01:15;;;;;;;2.63;1.10;;;;;;;18.90;56.69;100251.06;5076575;28;20187;-65
2022/12/31 06:03:40;;;;;;;3.80;1.03;;;;;;;18.92;56.62;100249.47;5073492;28;20236;-65
2022/12/31 06:06:06;;;;;;;4.23;1.10;;;;;;;18.91;56.54;100244.97;5086758;28;20163;-65
2022/12/31 06:08:32;;;;;;;2.10;1.13;;;;;;;18.91;56.98;100241.31;5093935;28;20177;-65
2022/12/31 06:10:57;;;;;;;2.40;0.80;;;;;;;18.93;56.85;100236.84;5113953;28;20411;-65
2022/12/31 06:13:23;;;;;;;2.40;0.90;;;;;;;18.92;56.68;100243.75;5099324;28;20193;-65
2022/12/31 06:15:48;;;;;;;2.13;0.90;;;;;;;18.91;56.87;100241.31;5094118;28;20166;-65
2022/12/31 06:18:13;;;;;;;3.83;1.20;;;;;;;18.93;56.56;100227.44;5093015;28;20178;-65
2022/12/31 06:20:39;;;;;;;2.20;0.90;;;;;;;18.92;56.69;100238.03;5069171;28;20213;-65
2022/12/31 06:23:04;;;;;;;3.30;0.90;;;;;;;18.94;56.70;100235.63;5073195;28;20654;-65
2022/12/31 06:25:30;;;;;;;3.13;0.87;;;;;;;18.94;56.61;100240.53;5073188;28;20199;-65
2022/12/31 06:27:55;;;;;;;3.30;1.17;;;;;;;18.92;56.78;100240.91;5074697;28;20187;-65
2022/12/31 06:30:21;;;;;;;2.57;1.10;;;;;;;18.93;56.68;100234.00;5093930;28;20919;-65
2022/12/31 06:32:46;;;;;;;2.70;1.13;;;;;;;18.94;56.68;100238.50;5090758;28;20545;-65
2022/12/31 06:35:12;;;;;;;3.10;1.07;;;;;;;18.93;56.60;100245.44;5088870;28;20188;-65
2022/12/31 06:37:37;;;;;;;2.83;1.00;;;;;;;18.93;56.62;100245.44;5097919;28;20548;-65
2022/12/31 06:40:03;;;;;;;2.17;0.90;;;;;;;18.96;56.64;100243.84;5079123;28;20201;-65
2022/12/31 06:42:29;;;;;;;2.43;0.90;;;;;;;18.92;56.71;100245.81;5073436;28;20169;-65
2022/12/31 06:44:56;;;;;;;1.97;1.10;;;;;;;18.96;56.34;100255.28;5075466;28;20542;-65
2022/12/31 06:47:21;;;;;;;2.00;0.80;;;;;;;18.93;56.77;100267.47;5072968;28;20479;-65
2022/12/31 06:49:46;;;;;;;2.60;0.90;;;;;;;18.93;56.53;100273.19;5073122;28;20426;-65
2022/12/31 06:52:12;;;;;;;1.70;0.67;;;;;;;18.94;56.47;100281.41;5057582;28;20216;-65
2022/12/31 06:54:37;;;;;;;2.00;0.97;;;;;;;18.93;56.69;100285.47;5072921;28;20711;-65
2022/12/31 06:57:03;;;;;;;2.57;1.00;;;;;;;18.92;56.63;100275.22;5075378;28;20187;-65
2022/12/31 06:59:29;;;;;;;2.93;0.80;;;;;;;18.93;56.82;100278.94;5073004;28;20717;-65
2022/12/31 07:01:57;;;;;;;2.90;0.97;;;;;;;18.93;56.63;100285.47;5072953;28;20417;-65
2022/12/31 07:04:41;;;;;;;3.50;1.13;;;;;;;18.94;56.80;100281.41;5074842;28;20293;-65
2022/12/31 07:07:28;;;;;;;2.33;0.80;;;;;;;18.95;56.60;100276.50;5083769;28;20455;-65
2022/12/31 07:10:02;;;;;;;3.80;1.00;;;;;;;18.94;56.62;100284.28;5061947;28;20521;-64
2022/12/31 07:12:40;;;;;;;2.23;1.00;;;;;;;18.93;56.72;100267.47;5059387;28;20464;-66
2022/12/31 07:15:30;;;;;;;4.47;1.10;;;;;;;18.95;56.76;100265.06;5073575;28;20429;-65
2022/12/31 07:18:17;;;;;;;2.77;0.90;;;;;;;18.96;56.56;100269.59;5072386;28;20394;-65
2022/12/31 07:20:43;;;;;;;4.40;1.37;;;;;;;18.93;56.57;100270.34;5074769;28;20437;-66
2022/12/31 07:23:09;;;;;;;2.37;1.00;;;;;;;18.94;56.57;100280.56;5072538;28;20445;-64
2022/12/31 07:25:34;;;;;;;3.07;0.87;;;;;;;18.94;56.56;100292.84;5072331;28;20209;-65
2022/12/31 07:28:09;;;;;;;2.27;0.80;;;;;;;18.95;56.54;100299.38;5056921;28;20642;-66
2022/12/31 07:30:48;;;;;;;2.10;0.90;;;;;;;18.96;56.46;100290.41;5072128;28;20292;-66
2022/12/31 07:33:26;;;;;;;2.47;0.70;;;;;;;18.93;56.50;100296.09;5072238;28;20398;-65
2022/12/31 07:36:08;;;;;;;2.83;0.93;;;;;;;18.95;56.55;100297.34;5071150;28;20436;-65
2022/12/31 07:38:36;;;;;;;2.23;0.80;;;;;;;18.95;56.51;100297.34;5052626;28;20776;-65
2022/12/31 07:41:39;;;;;;;3.97;1.40;;;;;;;18.96;56.43;100301.88;5064962;28;20469;-65
2022/12/31 07:44:05;;;;;;;2.03;0.87;;;;;;;18.96;56.24;100307.59;5072147;28;20491;-65
2022/12/31 07:46:36;;;;;;;1.87;0.77;;;;;;;18.97;56.47;100308.44;5072396;28;20440;-65
2022/12/31 07:49:02;;;;;;;2.13;0.90;;;;;;;18.98;56.55;100310.06;5090907;28;20189;-65
2022/12/31 07:51:27;;;;;;;1.80;0.80;;;;;;;18.97;56.34;100317.00;5099622;28;20498;-65
2022/12/31 07:53:53;;;;;;;3.00;0.80;;;;;;;18.96;56.75;100309.63;5112546;28;20569;-65
2022/12/31 07:56:18;;;;;;;2.47;1.00;;;;;;;18.97;56.42;100317.81;5100802;28;20190;-65
2022/12/31 07:58:52;;;;;;;2.30;0.80;;;;;;;18.95;56.58;100320.25;5091491;28;20162;-65
2022/12/31 08:01:28;;;;;;;1.60;0.80;;;;;;;18.95;56.45;100314.53;5089818;28;20166;-64
2022/12/31 08:04:02;;;;;;;2.20;0.90;;;;;;;18.96;56.50;100318.22;5072766;28;20452;-64
2022/12/31 08:06:42;;;;;;;4.13;0.90;;;;;;;19.01;56.30;100324.44;5055469;28;20413;-65
2022/12/31 08:09:23;;;;;;;2.60;1.00;;;;;;;18.97;56.29;100337.84;5077846;28;20539;-65
2022/12/31 08:11:50;;;;;;;1.90;0.73;;;;;;;18.98;56.39;100336.66;5056246;28;20405;-65
2022/12/31 08:14:15;;;;;;;2.03;0.97;;;;;;;19.00;56.53;100342.81;5087739;28;20453;-65
2022/12/31 08:16:41;;;;;;;2.43;0.90;;;;;;;18.99;56.44;100355.47;5073251;28;20474;-65
2022/12/31 08:19:13;;;;;;;2.87;0.90;;;;;;;18.98;56.38;100355.84;5090933;28;20256;-65
2022/12/31 08:21:46;;;;;;;2.33;0.80;;;;;;;18.99;56.53;100355.47;5055343;28;20190;-65
2022/12/31 08:24:17;;;;;;;3.03;1.10;;;;;;;19.01;56.23;100353.03;5053193;28;20441;-65
2022/12/31 08:27:06;;;;;;;1.80;0.77;;;;;;;19.02;56.26;100348.16;5073724;28;20805;-65
2022/12/31 08:29:41;;;;;;;1.87;0.80;;;;;;;19.00;56.31;100351.41;5039192;28;20405;-65
2022/12/31 08:32:29;;;;;;;2.43;0.90;;;;;;;19.06;56.01;100357.63;5036246;28;20742;-65
2022/12/31 08:35:02;;;;;;;1.87;0.80;;;;;;;19.05;56.13;100359.66;5054524;28;20530;-65
2022/12/31 08:37:46;;;;;;;3.27;0.87;;;;;;;19.02;56.33;100345.28;5065584;28;20439;-65
2022/12/31 08:40:25;;;;;;;2.40;0.90;;;;;;;19.04;56.16;100351.44;5076557;28;20474;-65
2022/12/31 08:43:00;;;;;;;2.07;0.80;;;;;;;19.05;56.33;100351.06;5072546;28;21062;-64
2022/12/31 08:45:37;;;;;;;5.10;0.83;;;;;;;19.00;56.23;100347.69;5071739;28;20494;-65
2022/12/31 08:48:29;;;;;;;2.53;0.80;;;;;;;18.99;56.25;100341.16;5077018;28;20452;-65
2022/12/31 08:50:55;;;;;;;2.13;0.90;;;;;;;19.03;55.99;100362.09;5052470;28;20417;-65
2022/12/31 08:53:21;;;;;;;2.87;1.00;;;;;;;19.03;56.15;100358.38;5073250;28;20441;-65
2022/12/31 08:55:48;;;;;;;1.83;0.70;;;;;;;19.05;56.26;100356.78;5069965;28;20254;-65
2022/12/31 08:58:37;;;;;;;8.10;1.33;;;;;;;19.03;56.12;100372.69;5070302;28;20171;-64
2022/12/31 09:01:02;;;;;;;2.07;1.07;;;;;;;19.05;55.98;100368.25;5073898;28;20431;-65
2022/12/31 09:03:34;;;;;;;2.27;0.87;;;;;;;19.04;56.30;100371.47;5055747;28;20436;-65
2022/12/31 09:06:15;;;;;;;2.33;0.80;;;;;;;19.01;56.26;100370.19;5090341;28;20213;-65
2022/12/31 09:08:50;;;;;;;3.50;1.00;;;;;;;19.03;56.16;100372.69;5068883;28;20444;-65
2022/12/31 09:11:29;;;;;;;2.53;1.00;;;;;;;18.99;56.38;100369.78;5072397;28;20408;-65
2022/12/31 09:14:21;;;;;;;2.07;0.90;;;;;;;19.01;56.47;100364.47;5077636;28;21094;-65
2022/12/31 09:17:18;;;;;;;3.07;1.03;;;;;;;19.01;56.22;100364.47;5060871;28;21185;-65
2022/12/31 09:19:44;;;;;;;2.97;0.87;;;;;;;18.99;56.48;100363.22;5056918;28;20487;-65
2022/12/31 09:22:09;;;;;;;3.00;0.87;;;;;;;19.02;56.29;100362.47;5070704;28;20409;-65
2022/12/31 09:24:35;;;;;;;2.00;0.80;;;;;;;19.05;56.11;100373.97;5054679;28;20207;-65
2022/12/31 09:27:13;;;;;;;3.77;0.83;;;;;;;19.02;56.33;100371.84;5070868;28;20666;-65
2022/12/31 09:29:53;;;;;;;1.90;0.60;;;;;;;19.04;56.18;100380.91;5054293;28;20175;-65
2022/12/31 09:32:41;;;;;;;1.90;0.70;;;;;;;19.04;55.97;100378.03;5066686;28;20436;-65
2022/12/31 09:35:13;;;;;;;2.07;0.80;;;;;;;19.04;56.30;100382.91;5072933;28;20415;-65
2022/12/31 09:37:48;;;;;;;2.03;0.80;;;;;;;19.04;55.95;100378.03;5091240;28;20511;-65
2022/12/31 09:40:42;;;;;;;3.07;0.97;;;;;;;19.06;56.01;100369.06;5068312;28;20833;-65
2022/12/31 09:43:32;;;;;;;2.67;1.00;;;;;;;19.09;56.04;100368.28;5071244;28;20451;-65
2022/12/31 09:46:45;;;;;;;2.37;0.80;;;;;;;19.07;55.80;100371.53;5076069;28;21150;-65
2022/12/31 09:49:13;;;;;;;1.77;0.80;;;;;;;19.06;56.31;100371.94;4994197;28;20437;-65
2022/12/31 09:51:47;;;;;;;3.07;0.87;;;;;;;19.05;56.19;100373.13;5089993;28;20424;-65
2022/12/31 09:54:21;;;;;;;1.90;0.80;;;;;;;19.09;55.99;100380.56;5055727;28;20401;-65
2022/12/31 09:57:08;;;;;;;3.00;0.80;;;;;;;19.11;56.04;100381.00;5090052;28;20400;-65
2022/12/31 10:00:21;;;;;;;3.10;0.83;;;;;;;19.10;55.99;100369.94;5078398;28;20900;-65
2022/12/31 10:02:55;;;;;;;3.63;1.17;;;;;;;19.09;56.11;100371.16;5009494;28;20463;-65
2022/12/31 10:05:39;;;;;;;2.43;0.90;;;;;;;19.08;56.04;100370.34;5046212;28;20495;-65
2022/12/31 10:08:07;;;;;;;2.23;0.70;;;;;;;19.07;56.10;100362.94;5089120;28;20427;-65
2022/12/31 10:10:39;;;;;;;2.07;0.80;;;;;;;19.09;56.13;100360.53;5088103;28;20439;-65
2022/12/31 10:13:20;;;;;;;3.00;0.90;;;;;;;19.09;56.32;100357.69;5072278;28;21083;-65
2022/12/31 10:15:57;;;;;;;4.13;0.90;;;;;;;19.11;56.08;100366.69;5056799;28;21062;-65
2022/12/31 10:18:32;;;;;;;3.10;0.77;;;;;;;19.14;56.05;100365.94;5057000;28;20494;-65
2022/12/31 10:21:35;;;;;;;2.17;0.80;;;;;;;19.14;55.87;100363.09;5073879;28;20451;-65
2022/12/31 10:24:27;;;;;;;2.70;0.90;;;;;;;19.10;56.08;100359.34;5058783;28;20448;-65
2022/12/31 10:27:15;;;;;;;2.70;0.93;;;;;;;19.10;56.10;100356.47;5058580;28;20825;-65
2022/12/31 10:30:14;;;;;;;1.90;0.80;;;;;;;19.11;55.95;100360.97;5075990;28;20917;-65
2022/12/31 10:32:52;;;;;;;2.00;0.90;;;;;;;19.11;55.90;100355.25;5041312;28;20433;-65
2022/12/31 10:35:29;;;;;;;2.70;0.90;;;;;;;19.16;55.95;100356.97;5097142;28;20419;-65
2022/12/31 10:38:18;;;;;;;2.17;0.70;;;;;;;19.14;56.05;100354.50;5091453;28;20478;-65
2022/12/31 10:41:32;;;;;;;1.87;0.80;;;;;;;19.15;56.05;100361.88;5074952;28;20497;-65
2022/12/31 10:44:28;;;;;;;2.93;0.80;;;;;;;19.15;55.76;100373.31;5008439;28;20429;-65
2022/12/31 10:47:15;;;;;;;3.43;1.03;;;;;;;19.14;56.07;100368.81;5089931;28;20435;-65
2022/12/31 10:49:40;;;;;;;2.47;0.80;;;;;;;19.15;56.43;100366.75;5091461;28;20465;-65
2022/12/31 10:52:27;;;;;;;3.53;1.20;;;;;;;19.13;56.17;100367.16;5077366;28;20445;-66
2022/12/31 10:55:03;;;;;;;2.67;1.00;;;;;;;19.14;56.00;100365.94;5070929;28;20195;-66
2022/12/31 10:57:45;;;;;;;1.73;0.70;;;;;;;19.14;55.98;100360.22;5054845;28;20481;-66
2022/12/31 11:00:23;;;;;;;1.60;0.60;;;;;;;19.12;56.23;100345.44;5055582;28;20449;-65
2022/12/31 11:03:07;;;;;;;2.20;0.90;;;;;;;19.13;55.84;100344.25;5054938;28;20445;-65
2022/12/31 11:05:55;;;;;;;2.73;0.77;;;;;;;19.14;56.14;100337.31;5072469;28;20572;-64
2022/12/31 11:08:45;;;;;;;3.67;0.93;;;;;;;19.13;56.06;100335.69;5071570;28;20906;-65
2022/12/31 11:11:31;;;;;;;1.70;0.70;;;;;;;19.14;56.16;100336.50;5072867;28;20386;-65
2022/12/31 11:14:21;;;;;;;4.13;0.80;;;;;;;19.11;55.90;100340.94;5054771;28;20451;-65
2022/12/31 11:17:01;;;;;;;2.07;0.83;;;;;;;19.16;56.02;100334.09;5073374;28;20511;-65
2022/12/31 11:20:04;;;;;;;3.50;1.23;;;;;;;19.14;56.05;100339.34;5091869;28;20447;-65
2022/12/31 11:22:54;;;;;;;2.70;0.80;;;;;;;19.13;56.10;100332.81;5088535;28;20416;-65
2022/12/31 11:25:48;;;;;;;2.20;0.70;;;;;;;19.12;56.27;100333.19;5073947;28;20479;-65
2022/12/31 11:28:32;;;;;;;2.77;1.00;;;;;;;19.13;56.04;100329.13;5073612;28;20582;-65
2022/12/31 11:31:21;;;;;;;4.10;0.97;;;;;;;19.13;56.12;100320.53;5081133;28;20433;-65
2022/12/31 11:34:02;;;;;;;2.40;0.77;;;;;;;19.13;56.17;100318.50;5081718;28;20419;-65
2022/12/31 11:36:43;;;;;;;1.70;0.60;;;;;;;19.13;56.26;100311.94;5088892;28;20501;-65
2022/12/31 11:39:29;;;;;;;2.00;0.80;;;;;;;19.15;55.87;100309.50;5092038;28;21005;-65
2022/12/31 11:42:14;;;;;;;2.40;0.60;;;;;;;19.15;56.03;100298.06;5030306;28;20535;-65
2022/12/31 11:44:45;;;;;;;3.10;0.80;;;;;;;19.17;56.01;100298.53;5017885;28;20451;-65
2022/12/31 11:47:36;;;;;;;2.43;0.67;;;;;;;19.16;55.91;100299.75;5016707;28;20407;-65
2022/12/31 11:50:31;;;;;;;2.17;0.90;;;;;;;19.15;56.04;100298.91;4951207;28;20469;-65
2022/12/31 11:53:05;;;;;;;2.07;0.90;;;;;;;19.18;55.91;100291.59;4956581;28;20472;-65
2022/12/31 11:55:49;;;;;;;1.90;0.80;;;;;;;19.14;56.01;100291.53;4967437;28;20518;-65
2022/12/31 11:58:21;;;;;;;2.10;1.00;;;;;;;19.15;55.89;100292.34;4969024;28;20445;-65